sensor_id;sensor_type;location;lat;lon;timestamp;pressure;altitude;pressure_sealevel;temperature;humidity
6144;BME280;3103;49.492;8.474;2023-04-15T00:01:00;99589.59;;;9.80;61.88
6144;BME280;3103;49.492;8.474;2023-04-15T00:03:27;99587.78;;;9.86;61.78
6144;BME280;3103;49.492;8.474;2023-04-15T00:05:56;99589.06;;;9.83;62.13
6144;BME280;3103;49.492;8.474;2023-04-15T00:08:24;99593.16;;;9.91;61.71
6144;BME280;3103;49.492;8.474;2023-04-15T00:10:51;99590.75;;;9.90;61.20
6144;BME280;3103;49.492;8.474;2023-04-15T00:13:18;99588.22;;;9.78;62.33
6144;BME280;3103;49.492;8.474;2023-04-15T00:15:45;99582.69;;;9.90;61.46
6144;BME280;3103;49.492;8.474;2023-04-15T00:18:13;99581.41;;;9.65;62.48
6144;BME280;3103;49.492;8.474;2023-04-15T00:20:39;99583.28;;;9.65;62.16
6144;BME280;3103;49.492;8.474;2023-04-15T00:23:07;99580.19;;;9.51;64.37
6144;BME280;3103;49.492;8.474;2023-04-15T00:25:34;99583.38;;;9.48;64.84
6144;BME280;3103;49.492;8.474;2023-04-15T00:28:00;99586.44;;;9.35;64.86
6144;BME280;3103;49.492;8.474;2023-04-15T00:30:28;99574.88;;;9.29;64.95
6144;BME280;3103;49.492;8.474;2023-04-15T00:32:54;99583.72;;;9.30;64.70
6144;BME280;3103;49.492;8.474;2023-04-15T00:35:21;99582.72;;;9.36;64.71
6144;BME280;3103;49.492;8.474;2023-04-15T00:37:49;99573.66;;;9.15;65.80
6144;BME280;3103;49.492;8.474;2023-04-15T00:40:18;99576.00;;;9.33;65.15
6144;BME280;3103;49.492;8.474;2023-04-15T00:42:45;99573.41;;;9.43;64.71
6144;BME280;3103;49.492;8.474;2023-04-15T00:45:12;99568.13;;;9.53;63.75
6144;BME280;3103;49.492;8.474;2023-04-15T00:47:40;99568.88;;;9.44;63.89
6144;BME280;3103;49.492;8.474;2023-04-15T00:50:09;99570.06;;;9.31;64.69
6144;BME280;3103;49.492;8.474;2023-04-15T00:52:37;99569.09;;;9.15;65.76
6144;BME280;3103;49.492;8.474;2023-04-15T00:55:05;99568.84;;;9.17;65.88
6144;BME280;3103;49.492;8.474;2023-04-15T00:57:32;99567.06;;;9.28;65.56
6144;BME280;3103;49.492;8.474;2023-04-15T00:59:59;99573.34;;;9.38;65.19
6144;BME280;3103;49.492;8.474;2023-04-15T01:02:26;99579.34;;;9.45;65.25
6144;BME280;3103;49.492;8.474;2023-04-15T01:04:53;99577.78;;;9.55;65.64
6144;BME280;3103;49.492;8.474;2023-04-15T01:07:21;99580.16;;;9.46;65.92
6144;BME280;3103;49.492;8.474;2023-04-15T01:09:49;99580.25;;;9.29;68.46
6144;BME280;3103;49.492;8.474;2023-04-15T01:12:16;99580.28;;;9.34;69.70
6144;BME280;3103;49.492;8.474;2023-04-15T01:14:42;99573.91;;;9.40;70.86
6144;BME280;3103;49.492;8.474;2023-04-15T01:17:09;99567.00;;;9.44;72.05
6144;BME280;3103;49.492;8.474;2023-04-15T01:19:36;99564.91;;;9.51;71.96
6144;BME280;3103;49.492;8.474;2023-04-15T01:22:03;99563.72;;;9.42;72.04
6144;BME280;3103;49.492;8.474;2023-04-15T01:24:31;99572.91;;;9.46;71.61
6144;BME280;3103;49.492;8.474;2023-04-15T01:27:00;99572.06;;;9.19;73.02
6144;BME280;3103;49.492;8.474;2023-04-15T01:29:28;99569.09;;;8.93;75.76
6144;BME280;3103;49.492;8.474;2023-04-15T01:31:55;99567.03;;;9.01;75.18
6144;BME280;3103;49.492;8.474;2023-04-15T01:34:43;99569.69;;;9.01;72.08
6144;BME280;3103;49.492;8.474;2023-04-15T01:37:28;99569.47;;;9.02;70.73
6144;BME280;3103;49.492;8.474;2023-04-15T01:39:55;99571.53;;;8.73;69.77
6144;BME280;3103;49.492;8.474;2023-04-15T01:42:23;99577.09;;;8.72;68.72
6144;BME280;3103;49.492;8.474;2023-04-15T01:44:50;99566.19;;;8.73;69.01
6144;BME280;3103;49.492;8.474;2023-04-15T01:47:18;99568.72;;;9.07;67.21
6144;BME280;3103;49.492;8.474;2023-04-15T01:49:47;99571.53;;;9.17;66.10
6144;BME280;3103;49.492;8.474;2023-04-15T01:52:15;99573.00;;;8.86;66.99
6144;BME280;3103;49.492;8.474;2023-04-15T01:54:43;99571.88;;;8.82;67.25
6144;BME280;3103;49.492;8.474;2023-04-15T01:57:12;99572.41;;;8.79;68.07
6144;BME280;3103;49.492;8.474;2023-04-15T01:59:40;99567.44;;;8.71;68.32
6144;BME280;3103;49.492;8.474;2023-04-15T02:02:08;99577.16;;;8.55;69.49
6144;BME280;3103;49.492;8.474;2023-04-15T02:04:37;99579.13;;;8.26;73.25
6144;BME280;3103;49.492;8.474;2023-04-15T02:07:05;99584.63;;;8.53;72.03
6144;BME280;3103;49.492;8.474;2023-04-15T02:09:35;99573.75;;;8.43;71.03
6144;BME280;3103;49.492;8.474;2023-04-15T02:12:03;99575.78;;;8.52;69.93
6144;BME280;3103;49.492;8.474;2023-04-15T02:14:31;99574.22;;;8.56;69.74
6144;BME280;3103;49.492;8.474;2023-04-15T02:16:59;99573.91;;;8.53;69.64
6144;BME280;3103;49.492;8.474;2023-04-15T02:19:34;99574.97;;;8.52;69.57
6144;BME280;3103;49.492;8.474;2023-04-15T02:22:03;99573.63;;;8.71;69.38
6144;BME280;3103;49.492;8.474;2023-04-15T02:24:33;99572.81;;;8.71;68.30
6144;BME280;3103;49.492;8.474;2023-04-15T02:27:03;99577.09;;;8.72;68.87
6144;BME280;3103;49.492;8.474;2023-04-15T02:29:31;99575.63;;;8.59;68.52
6144;BME280;3103;49.492;8.474;2023-04-15T02:32:00;99580.75;;;8.44;69.47
6144;BME280;3103;49.492;8.474;2023-04-15T02:34:28;99575.97;;;8.46;69.24
6144;BME280;3103;49.492;8.474;2023-04-15T02:36:57;99572.97;;;8.42;69.08
6144;BME280;3103;49.492;8.474;2023-04-15T02:39:25;99568.91;;;8.40;69.85
6144;BME280;3103;49.492;8.474;2023-04-15T02:41:54;99575.88;;;8.24;70.57
6144;BME280;3103;49.492;8.474;2023-04-15T02:44:22;99575.72;;;8.30;70.23
6144;BME280;3103;49.492;8.474;2023-04-15T02:46:55;99573.94;;;8.36;69.83
6144;BME280;3103;49.492;8.474;2023-04-15T02:49:23;99568.81;;;8.51;68.85
6144;BME280;3103;49.492;8.474;2023-04-15T02:51:51;99571.81;;;8.55;69.79
6144;BME280;3103;49.492;8.474;2023-04-15T02:54:21;99585.38;;;8.31;70.25
6144;BME280;3103;49.492;8.474;2023-04-15T02:56:52;99577.56;;;8.30;70.88
6144;BME280;3103;49.492;8.474;2023-04-15T02:59:22;99583.09;;;8.23;71.48
6144;BME280;3103;49.492;8.474;2023-04-15T03:01:50;99578.50;;;8.36;70.09
6144;BME280;3103;49.492;8.474;2023-04-15T03:04:18;99585.13;;;8.33;70.73
6144;BME280;3103;49.492;8.474;2023-04-15T03:06:46;99581.22;;;8.41;70.71
6144;BME280;3103;49.492;8.474;2023-04-15T03:09:14;99583.19;;;8.45;70.53
6144;BME280;3103;49.492;8.474;2023-04-15T03:11:43;99582.03;;;8.41;70.01
6144;BME280;3103;49.492;8.474;2023-04-15T03:14:11;99579.63;;;8.40;70.83
6144;BME280;3103;49.492;8.474;2023-04-15T03:16:42;99585.47;;;8.37;71.66
6144;BME280;3103;49.492;8.474;2023-04-15T03:19:11;99587.97;;;8.43;73.39
6144;BME280;3103;49.492;8.474;2023-04-15T03:21:41;99590.38;;;8.28;73.28
6144;BME280;3103;49.492;8.474;2023-04-15T03:24:09;99591.06;;;8.18;73.37
6144;BME280;3103;49.492;8.474;2023-04-15T03:26:38;99589.75;;;8.21;72.34
6144;BME280;3103;49.492;8.474;2023-04-15T03:29:11;99593.25;;;8.21;72.43
6144;BME280;3103;49.492;8.474;2023-04-15T03:31:40;99591.13;;;8.23;70.99
6144;BME280;3103;49.492;8.474;2023-04-15T03:34:08;99587.78;;;8.16;71.56
6144;BME280;3103;49.492;8.474;2023-04-15T03:36:36;99586.41;;;8.14;71.28
6144;BME280;3103;49.492;8.474;2023-04-15T03:39:04;99585.78;;;8.07;69.80
6144;BME280;3103;49.492;8.474;2023-04-15T03:41:32;99593.50;;;8.03;69.26
6144;BME280;3103;49.492;8.474;2023-04-15T03:44:00;99588.03;;;7.98;69.88
6144;BME280;3103;49.492;8.474;2023-04-15T03:46:27;99586.03;;;8.05;69.66
6144;BME280;3103;49.492;8.474;2023-04-15T03:48:55;99581.63;;;7.99;70.00
6144;BME280;3103;49.492;8.474;2023-04-15T03:51:23;99578.97;;;7.99;69.46
6144;BME280;3103;49.492;8.474;2023-04-15T03:53:51;99577.59;;;7.96;69.26
6144;BME280;3103;49.492;8.474;2023-04-15T03:56:19;99583.50;;;7.98;68.79
6144;BME280;3103;49.492;8.474;2023-04-15T03:58:47;99581.63;;;7.82;69.56
6144;BME280;3103;49.492;8.474;2023-04-15T04:01:14;99583.66;;;7.75;70.08
6144;BME280;3103;49.492;8.474;2023-04-15T04:03:43;99591.09;;;7.73;70.62
6144;BME280;3103;49.492;8.474;2023-04-15T04:06:11;99582.44;;;7.83;70.66
6144;BME280;3103;49.492;8.474;2023-04-15T04:08:39;99578.81;;;7.89;70.08
6144;BME280;3103;49.492;8.474;2023-04-15T04:11:07;99577.25;;;7.76;69.86
6144;BME280;3103;49.492;8.474;2023-04-15T04:13:35;99589.16;;;7.85;68.79
6144;BME280;3103;49.492;8.474;2023-04-15T04:16:03;99589.97;;;7.86;69.07
6144;BME280;3103;49.492;8.474;2023-04-15T04:18:31;99593.38;;;7.81;69.87
6144;BME280;3103;49.492;8.474;2023-04-15T04:20:59;99594.56;;;7.73;69.57
6144;BME280;3103;49.492;8.474;2023-04-15T04:23:27;99588.81;;;7.65;69.97
6144;BME280;3103;49.492;8.474;2023-04-15T04:25:55;99597.59;;;7.77;70.04
6144;BME280;3103;49.492;8.474;2023-04-15T04:28:23;99593.38;;;7.64;69.86
6144;BME280;3103;49.492;8.474;2023-04-15T04:30:51;99591.56;;;7.70;69.78
6144;BME280;3103;49.492;8.474;2023-04-15T04:33:19;99598.09;;;7.91;68.51
6144;BME280;3103;49.492;8.474;2023-04-15T04:35:47;99590.47;;;7.83;68.97
6144;BME280;3103;49.492;8.474;2023-04-15T04:38:14;99590.78;;;7.69;68.92
6144;BME280;3103;49.492;8.474;2023-04-15T04:40:43;99601.63;;;7.63;69.14
6144;BME280;3103;49.492;8.474;2023-04-15T04:43:11;99597.34;;;7.79;68.41
6144;BME280;3103;49.492;8.474;2023-04-15T04:45:40;99598.59;;;7.59;69.05
6144;BME280;3103;49.492;8.474;2023-04-15T04:48:08;99600.28;;;7.49;69.90
6144;BME280;3103;49.492;8.474;2023-04-15T04:50:37;99597.25;;;7.73;68.93
6144;BME280;3103;49.492;8.474;2023-04-15T04:53:05;99601.38;;;7.64;70.23
6144;BME280;3103;49.492;8.474;2023-04-15T04:55:33;99595.31;;;7.86;70.52
6144;BME280;3103;49.492;8.474;2023-04-15T04:58:03;99595.19;;;7.92;70.85
6144;BME280;3103;49.492;8.474;2023-04-15T05:00:31;99599.22;;;7.78;72.32
6144;BME280;3103;49.492;8.474;2023-04-15T05:02:59;99609.59;;;7.74;72.85
6144;BME280;3103;49.492;8.474;2023-04-15T05:05:27;99608.81;;;7.91;73.44
6144;BME280;3103;49.492;8.474;2023-04-15T05:07:55;99612.84;;;7.77;74.13
6144;BME280;3103;49.492;8.474;2023-04-15T05:10:23;99617.13;;;7.78;73.74
6144;BME280;3103;49.492;8.474;2023-04-15T05:12:50;99616.91;;;7.96;73.06
6144;BME280;3103;49.492;8.474;2023-04-15T05:15:19;99615.78;;;7.92;72.93
6144;BME280;3103;49.492;8.474;2023-04-15T05:17:47;99616.09;;;7.95;72.12
6144;BME280;3103;49.492;8.474;2023-04-15T05:20:15;99627.41;;;7.86;72.06
6144;BME280;3103;49.492;8.474;2023-04-15T05:22:42;99621.13;;;7.92;72.05
6144;BME280;3103;49.492;8.474;2023-04-15T05:25:10;99633.56;;;7.86;72.18
6144;BME280;3103;49.492;8.474;2023-04-15T05:27:38;99631.69;;;7.70;73.10
6144;BME280;3103;49.492;8.474;2023-04-15T05:30:06;99634.06;;;7.83;72.10
6144;BME280;3103;49.492;8.474;2023-04-15T05:32:35;99635.69;;;8.01;71.16
6144;BME280;3103;49.492;8.474;2023-04-15T05:35:03;99636.09;;;7.76;72.11
6144;BME280;3103;49.492;8.474;2023-04-15T05:37:30;99643.03;;;8.22;70.39
6144;BME280;3103;49.492;8.474;2023-04-15T05:39:58;99635.56;;;8.41;69.57
6144;BME280;3103;49.492;8.474;2023-04-15T05:42:25;99640.22;;;8.46;69.19
6144;BME280;3103;49.492;8.474;2023-04-15T05:44:53;99632.84;;;8.36;69.25
6144;BME280;3103;49.492;8.474;2023-04-15T05:47:21;99630.56;;;8.45;69.10
6144;BME280;3103;49.492;8.474;2023-04-15T05:49:49;99644.25;;;8.31;69.37
6144;BME280;3103;49.492;8.474;2023-04-15T05:52:17;99645.31;;;8.30;69.96
6144;BME280;3103;49.492;8.474;2023-04-15T05:54:44;99633.22;;;8.61;68.75
6144;BME280;3103;49.492;8.474;2023-04-15T05:57:13;99637.84;;;8.32;69.65
6144;BME280;3103;49.492;8.474;2023-04-15T05:59:40;99635.50;;;8.53;69.33
6144;BME280;3103;49.492;8.474;2023-04-15T06:02:09;99644.84;;;8.50;69.17
6144;BME280;3103;49.492;8.474;2023-04-15T06:04:37;99640.09;;;8.57;68.45
6144;BME280;3103;49.492;8.474;2023-04-15T06:07:06;99643.44;;;8.65;68.81
6144;BME280;3103;49.492;8.474;2023-04-15T06:09:33;99634.25;;;8.77;68.48
6144;BME280;3103;49.492;8.474;2023-04-15T06:12:01;99636.88;;;8.94;68.04
6144;BME280;3103;49.492;8.474;2023-04-15T06:14:29;99632.66;;;9.20;67.05
6144;BME280;3103;49.492;8.474;2023-04-15T06:16:57;99635.72;;;9.07;67.58
6144;BME280;3103;49.492;8.474;2023-04-15T06:19:25;99636.75;;;9.28;67.81
6144;BME280;3103;49.492;8.474;2023-04-15T06:21:53;99647.19;;;9.46;66.68
6144;BME280;3103;49.492;8.474;2023-04-15T06:24:21;99641.22;;;9.00;67.64
6144;BME280;3103;49.492;8.474;2023-04-15T06:26:49;99639.69;;;9.26;67.61
6144;BME280;3103;49.492;8.474;2023-04-15T06:29:17;99644.00;;;9.76;66.27
6144;BME280;3103;49.492;8.474;2023-04-15T06:31:46;99656.41;;;9.82;65.18
6144;BME280;3103;49.492;8.474;2023-04-15T06:34:14;99648.31;;;9.77;65.63
6144;BME280;3103;49.492;8.474;2023-04-15T06:36:42;99645.88;;;9.75;64.99
6144;BME280;3103;49.492;8.474;2023-04-15T06:39:10;99643.84;;;9.88;65.07
6144;BME280;3103;49.492;8.474;2023-04-15T06:41:38;99651.97;;;9.98;64.86
6144;BME280;3103;49.492;8.474;2023-04-15T06:44:05;99645.47;;;10.16;64.06
6144;BME280;3103;49.492;8.474;2023-04-15T06:46:33;99645.38;;;10.37;63.17
6144;BME280;3103;49.492;8.474;2023-04-15T06:49:01;99640.28;;;10.09;63.09
6144;BME280;3103;49.492;8.474;2023-04-15T06:51:30;99650.66;;;10.59;61.49
6144;BME280;3103;49.492;8.474;2023-04-15T06:53:59;99650.22;;;10.73;61.45
6144;BME280;3103;49.492;8.474;2023-04-15T06:56:27;99648.44;;;10.51;62.94
6144;BME280;3103;49.492;8.474;2023-04-15T06:58:55;99652.38;;;10.76;62.04
6144;BME280;3103;49.492;8.474;2023-04-15T07:01:23;99651.63;;;10.48;62.92
6144;BME280;3103;49.492;8.474;2023-04-15T07:03:52;99650.25;;;10.83;62.58
6144;BME280;3103;49.492;8.474;2023-04-15T07:06:19;99651.47;;;11.07;60.86
6144;BME280;3103;49.492;8.474;2023-04-15T07:08:48;99653.69;;;11.20;61.41
6144;BME280;3103;49.492;8.474;2023-04-15T07:11:16;99659.97;;;11.46;60.02
6144;BME280;3103;49.492;8.474;2023-04-15T07:13:45;99658.25;;;11.25;61.18
6144;BME280;3103;49.492;8.474;2023-04-15T07:16:13;99655.34;;;11.32;60.23
6144;BME280;3103;49.492;8.474;2023-04-15T07:18:40;99647.44;;;11.10;60.56
6144;BME280;3103;49.492;8.474;2023-04-15T07:21:09;99645.53;;;11.05;61.17
6144;BME280;3103;49.492;8.474;2023-04-15T07:23:36;99646.78;;;10.87;61.85
6144;BME280;3103;49.492;8.474;2023-04-15T07:26:04;99649.28;;;10.99;61.30
6144;BME280;3103;49.492;8.474;2023-04-15T07:28:32;99652.38;;;10.81;61.24
6144;BME280;3103;49.492;8.474;2023-04-15T07:31:00;99658.75;;;10.69;61.60
6144;BME280;3103;49.492;8.474;2023-04-15T07:33:28;99659.06;;;10.73;61.16
6144;BME280;3103;49.492;8.474;2023-04-15T07:35:56;99665.25;;;10.74;60.94
6144;BME280;3103;49.492;8.474;2023-04-15T07:38:25;99657.47;;;10.77;60.96
6144;BME280;3103;49.492;8.474;2023-04-15T07:40:52;99662.97;;;10.97;60.21
6144;BME280;3103;49.492;8.474;2023-04-15T07:43:20;99660.19;;;11.29;59.54
6144;BME280;3103;49.492;8.474;2023-04-15T07:45:48;99665.38;;;11.56;58.82
6144;BME280;3103;49.492;8.474;2023-04-15T07:48:16;99665.34;;;11.46;58.28
6144;BME280;3103;49.492;8.474;2023-04-15T07:50:44;99670.41;;;11.33;59.50
6144;BME280;3103;49.492;8.474;2023-04-15T07:53:12;99670.81;;;11.09;59.77
6144;BME280;3103;49.492;8.474;2023-04-15T07:55:43;99675.09;;;11.00;59.93
6144;BME280;3103;49.492;8.474;2023-04-15T07:58:11;99672.41;;;11.05;59.44
6144;BME280;3103;49.492;8.474;2023-04-15T08:00:39;99674.03;;;11.01;59.75
6144;BME280;3103;49.492;8.474;2023-04-15T08:03:07;99674.13;;;10.74;60.18
6144;BME280;3103;49.492;8.474;2023-04-15T08:05:35;99667.97;;;10.84;60.52
6144;BME280;3103;49.492;8.474;2023-04-15T08:08:03;99671.53;;;10.89;61.37
6144;BME280;3103;49.492;8.474;2023-04-15T08:10:31;99674.22;;;10.94;61.54
6144;BME280;3103;49.492;8.474;2023-04-15T08:12:59;99672.03;;;11.34;60.28
6144;BME280;3103;49.492;8.474;2023-04-15T08:15:27;99676.00;;;11.88;59.92
6144;BME280;3103;49.492;8.474;2023-04-15T08:17:55;99681.16;;;12.31;57.30
6144;BME280;3103;49.492;8.474;2023-04-15T08:20:23;99678.19;;;12.68;56.64
6144;BME280;3103;49.492;8.474;2023-04-15T08:22:51;99680.34;;;12.81;54.93
6144;BME280;3103;49.492;8.474;2023-04-15T08:25:19;99674.41;;;12.69;55.25
6144;BME280;3103;49.492;8.474;2023-04-15T08:27:47;99686.78;;;12.75;54.49
6144;BME280;3103;49.492;8.474;2023-04-15T08:30:15;99683.56;;;12.78;54.29
6144;BME280;3103;49.492;8.474;2023-04-15T08:32:46;99687.84;;;12.79;54.34
6144;BME280;3103;49.492;8.474;2023-04-15T08:35:14;99693.78;;;12.86;54.35
6144;BME280;3103;49.492;8.474;2023-04-15T08:37:42;99689.19;;;12.97;53.08
6144;BME280;3103;49.492;8.474;2023-04-15T08:40:13;99686.00;;;12.64;54.25
6144;BME280;3103;49.492;8.474;2023-04-15T08:42:43;99690.28;;;12.96;52.64
6144;BME280;3103;49.492;8.474;2023-04-15T08:45:13;99685.38;;;13.23;51.89
6144;BME280;3103;49.492;8.474;2023-04-15T08:47:42;99688.84;;;13.34;51.03
6144;BME280;3103;49.492;8.474;2023-04-15T08:50:11;99684.19;;;13.50;50.74
6144;BME280;3103;49.492;8.474;2023-04-15T08:52:40;99694.00;;;13.20;52.06
6144;BME280;3103;49.492;8.474;2023-04-15T08:55:08;99685.59;;;13.32;51.13
6144;BME280;3103;49.492;8.474;2023-04-15T08:57:37;99690.91;;;13.57;50.93
6144;BME280;3103;49.492;8.474;2023-04-15T09:00:07;99692.19;;;12.85;53.32
6144;BME280;3103;49.492;8.474;2023-04-15T09:02:36;99692.03;;;13.46;51.62
6144;BME280;3103;49.492;8.474;2023-04-15T09:05:04;99685.56;;;13.37;51.60
6144;BME280;3103;49.492;8.474;2023-04-15T09:07:35;99693.03;;;13.60;50.87
6144;BME280;3103;49.492;8.474;2023-04-15T09:10:03;99700.44;;;13.94;49.63
6144;BME280;3103;49.492;8.474;2023-04-15T09:12:35;99702.31;;;14.38;48.64
6144;BME280;3103;49.492;8.474;2023-04-15T09:15:03;99705.91;;;14.62;47.43
6144;BME280;3103;49.492;8.474;2023-04-15T09:17:32;99701.00;;;14.30;47.70
6144;BME280;3103;49.492;8.474;2023-04-15T09:20:12;99703.00;;;14.14;48.11
6144;BME280;3103;49.492;8.474;2023-04-15T09:22:42;99702.81;;;14.45;47.47
6144;BME280;3103;49.492;8.474;2023-04-15T09:27:52;99702.25;;;14.43;47.62
6144;BME280;3103;49.492;8.474;2023-04-15T09:30:21;99704.72;;;14.39;47.74
6144;BME280;3103;49.492;8.474;2023-04-15T09:35:19;99697.72;;;14.72;46.79
6144;BME280;3103;49.492;8.474;2023-04-15T09:37:51;99715.41;;;14.89;46.06
6144;BME280;3103;49.492;8.474;2023-04-15T09:40:39;99703.13;;;14.72;46.60
6144;BME280;3103;49.492;8.474;2023-04-15T09:43:08;99708.09;;;14.60;47.33
6144;BME280;3103;49.492;8.474;2023-04-15T09:45:47;99711.69;;;14.11;48.40
6144;BME280;3103;49.492;8.474;2023-04-15T09:48:18;99715.09;;;14.27;48.55
6144;BME280;3103;49.492;8.474;2023-04-15T09:50:48;99713.47;;;14.26;48.53
6144;BME280;3103;49.492;8.474;2023-04-15T09:53:18;99713.13;;;14.33;48.93
6144;BME280;3103;49.492;8.474;2023-04-15T09:55:52;99718.38;;;14.58;49.08
6144;BME280;3103;49.492;8.474;2023-04-15T09:58:26;99723.06;;;14.47;50.53
6144;BME280;3103;49.492;8.474;2023-04-15T10:00:56;99720.13;;;14.39;49.44
6144;BME280;3103;49.492;8.474;2023-04-15T10:03:27;99726.53;;;14.53;48.44
6144;BME280;3103;49.492;8.474;2023-04-15T10:05:57;99714.34;;;14.55;48.08
6144;BME280;3103;49.492;8.474;2023-04-15T10:08:27;99718.91;;;14.60;48.46
6144;BME280;3103;49.492;8.474;2023-04-15T10:10:56;99724.59;;;14.59;47.67
6144;BME280;3103;49.492;8.474;2023-04-15T10:13:25;99718.63;;;14.62;47.32
6144;BME280;3103;49.492;8.474;2023-04-15T10:16:01;99724.59;;;14.93;46.77
6144;BME280;3103;49.492;8.474;2023-04-15T10:18:34;99739.31;;;15.05;44.42
6144;BME280;3103;49.492;8.474;2023-04-15T10:21:04;99725.56;;;15.02;45.83
6144;BME280;3103;49.492;8.474;2023-04-15T10:23:33;99732.56;;;15.03;46.18
6144;BME280;3103;49.492;8.474;2023-04-15T10:26:03;99731.59;;;14.94;47.11
6144;BME280;3103;49.492;8.474;2023-04-15T10:28:31;99737.97;;;14.74;49.62
6144;BME280;3103;49.492;8.474;2023-04-15T10:30:59;99734.13;;;14.51;49.08
6144;BME280;3103;49.492;8.474;2023-04-15T10:33:28;99736.56;;;14.52;49.01
6144;BME280;3103;49.492;8.474;2023-04-15T10:35:56;99744.94;;;14.51;47.95
6144;BME280;3103;49.492;8.474;2023-04-15T10:38:32;99740.00;;;14.58;47.84
6144;BME280;3103;49.492;8.474;2023-04-15T10:41:23;99741.53;;;14.69;47.29
6144;BME280;3103;49.492;8.474;2023-04-15T10:44:10;99748.56;;;14.70;45.42
6144;BME280;3103;49.492;8.474;2023-04-15T10:46:43;99756.09;;;14.78;44.73
6144;BME280;3103;49.492;8.474;2023-04-15T10:49:14;99761.81;;;14.72;44.79
6144;BME280;3103;49.492;8.474;2023-04-15T10:51:44;99756.47;;;14.96;43.91
6144;BME280;3103;49.492;8.474;2023-04-15T10:56:43;99758.81;;;15.02;42.93
6144;BME280;3103;49.492;8.474;2023-04-15T10:59:10;99765.34;;;15.01;42.90
6144;BME280;3103;49.492;8.474;2023-04-15T11:01:52;99763.19;;;14.69;43.58
6144;BME280;3103;49.492;8.474;2023-04-15T11:04:58;99766.56;;;14.51;43.80
6144;BME280;3103;49.492;8.474;2023-04-15T11:12:45;99775.59;;;14.70;39.62
6144;BME280;3103;49.492;8.474;2023-04-15T11:15:32;99775.59;;;14.70;40.50
6144;BME280;3103;49.492;8.474;2023-04-15T11:18:14;99782.69;;;14.61;40.06
6144;BME280;3103;49.492;8.474;2023-04-15T11:20:53;99777.06;;;14.58;40.72
6144;BME280;3103;49.492;8.474;2023-04-15T11:23:42;99779.03;;;14.81;41.57
6144;BME280;3103;49.492;8.474;2023-04-15T11:26:13;99780.97;;;14.75;40.18
6144;BME280;3103;49.492;8.474;2023-04-15T11:28:43;99784.97;;;14.83;40.98
6144;BME280;3103;49.492;8.474;2023-04-15T11:31:16;99789.88;;;14.76;41.08
6144;BME280;3103;49.492;8.474;2023-04-15T11:34:05;99785.63;;;14.70;41.29
6144;BME280;3103;49.492;8.474;2023-04-15T11:36:33;99791.25;;;14.73;42.39
6144;BME280;3103;49.492;8.474;2023-04-15T11:39:03;99787.88;;;14.58;41.44
6144;BME280;3103;49.492;8.474;2023-04-15T11:41:34;99788.44;;;14.49;40.38
6144;BME280;3103;49.492;8.474;2023-04-15T11:44:02;99796.72;;;14.63;41.63
6144;BME280;3103;49.492;8.474;2023-04-15T11:46:42;99791.78;;;14.36;42.50
6144;BME280;3103;49.492;8.474;2023-04-15T11:49:25;99802.59;;;14.36;42.48
6144;BME280;3103;49.492;8.474;2023-04-15T11:51:52;99804.44;;;14.41;43.04
6144;BME280;3103;49.492;8.474;2023-04-15T11:54:19;99804.72;;;14.44;42.99
6144;BME280;3103;49.492;8.474;2023-04-15T11:56:52;99804.31;;;14.66;42.72
6144;BME280;3103;49.492;8.474;2023-04-15T11:59:20;99803.13;;;14.77;41.27
6144;BME280;3103;49.492;8.474;2023-04-15T12:01:46;99800.25;;;14.64;41.87
6144;BME280;3103;49.492;8.474;2023-04-15T12:04:17;99811.22;;;14.77;42.56
6144;BME280;3103;49.492;8.474;2023-04-15T12:06:51;99805.09;;;14.67;42.51
6144;BME280;3103;49.492;8.474;2023-04-15T12:09:18;99815.13;;;14.66;42.15
6144;BME280;3103;49.492;8.474;2023-04-15T12:11:50;99809.72;;;14.66;41.93
6144;BME280;3103;49.492;8.474;2023-04-15T12:14:28;99810.97;;;14.79;41.22
6144;BME280;3103;49.492;8.474;2023-04-15T12:19:29;99816.13;;;14.75;39.67
6144;BME280;3103;49.492;8.474;2023-04-15T12:21:58;99817.19;;;14.74;39.29
6144;BME280;3103;49.492;8.474;2023-04-15T12:24:27;99818.88;;;14.70;39.92
6144;BME280;3103;49.492;8.474;2023-04-15T12:26:56;99824.69;;;14.48;37.87
6144;BME280;3103;49.492;8.474;2023-04-15T12:29:27;99823.34;;;14.46;38.17
6144;BME280;3103;49.492;8.474;2023-04-15T12:31:56;99826.56;;;14.48;39.33
6144;BME280;3103;49.492;8.474;2023-04-15T12:34:31;99827.72;;;14.37;40.52
6144;BME280;3103;49.492;8.474;2023-04-15T12:37:00;99827.38;;;14.43;41.04
6144;BME280;3103;49.492;8.474;2023-04-15T12:39:28;99827.44;;;14.38;40.35
6144;BME280;3103;49.492;8.474;2023-04-15T12:41:57;99835.50;;;14.43;37.50
6144;BME280;3103;49.492;8.474;2023-04-15T12:44:24;99838.81;;;14.30;35.60
6144;BME280;3103;49.492;8.474;2023-04-15T12:46:51;99829.03;;;14.39;34.78
6144;BME280;3103;49.492;8.474;2023-04-15T12:49:20;99833.59;;;14.49;33.98
6144;BME280;3103;49.492;8.474;2023-04-15T12:51:48;99833.88;;;14.42;34.14
6144;BME280;3103;49.492;8.474;2023-04-15T12:54:15;99833.34;;;14.45;33.09
6144;BME280;3103;49.492;8.474;2023-04-15T12:56:47;99840.13;;;14.33;33.82
6144;BME280;3103;49.492;8.474;2023-04-15T12:59:15;99841.50;;;14.30;32.75
6144;BME280;3103;49.492;8.474;2023-04-15T13:01:44;99850.94;;;14.33;32.80
6144;BME280;3103;49.492;8.474;2023-04-15T13:04:13;99847.97;;;14.34;33.03
6144;BME280;3103;49.492;8.474;2023-04-15T13:06:41;99853.34;;;14.44;33.08
6144;BME280;3103;49.492;8.474;2023-04-15T13:09:08;99850.13;;;14.32;32.90
6144;BME280;3103;49.492;8.474;2023-04-15T13:11:35;99850.63;;;14.49;33.22
6144;BME280;3103;49.492;8.474;2023-04-15T13:14:04;99857.41;;;14.42;33.83
6144;BME280;3103;49.492;8.474;2023-04-15T13:16:32;99853.88;;;14.46;33.71
6144;BME280;3103;49.492;8.474;2023-04-15T13:19:00;99861.78;;;14.27;34.24
6144;BME280;3103;49.492;8.474;2023-04-15T13:21:28;99862.31;;;14.30;34.79
6144;BME280;3103;49.492;8.474;2023-04-15T13:23:54;99863.38;;;14.39;34.97
6144;BME280;3103;49.492;8.474;2023-04-15T13:26:21;99866.16;;;14.18;35.81
6144;BME280;3103;49.492;8.474;2023-04-15T13:28:48;99867.41;;;14.41;36.50
6144;BME280;3103;49.492;8.474;2023-04-15T13:31:14;99866.63;;;14.36;36.33
6144;BME280;3103;49.492;8.474;2023-04-15T13:33:41;99870.72;;;14.28;36.54
6144;BME280;3103;49.492;8.474;2023-04-15T13:36:08;99872.22;;;14.49;36.59
6144;BME280;3103;49.492;8.474;2023-04-15T13:38:35;99871.63;;;14.63;37.69
6144;BME280;3103;49.492;8.474;2023-04-15T13:41:02;99880.09;;;14.46;37.42
6144;BME280;3103;49.492;8.474;2023-04-15T13:43:29;99875.50;;;14.41;37.92
6144;BME280;3103;49.492;8.474;2023-04-15T13:45:56;99883.34;;;14.43;38.16
6144;BME280;3103;49.492;8.474;2023-04-15T13:48:22;99883.97;;;14.24;38.45
6144;BME280;3103;49.492;8.474;2023-04-15T13:50:49;99890.16;;;14.30;38.75
6144;BME280;3103;49.492;8.474;2023-04-15T13:53:16;99891.44;;;14.48;39.32